Impacts METAR Board INFO
IDs:

KDFW - Dallas-Ft Worth Intl, TX, US

Updated at: 1403 UTC 15 Dec 2017
Potential Impact None Slight Moderate High
Time15/02Z 15/03Z 15/04Z 15/05Z 15/06Z 15/07Z 15/08Z 15/09Z 15/10Z 15/11Z 15/12Z 15/13Z 15/14Z
VIS10 10 10 10 10 10 10 10 10 10 10 10 10
CIG-- -- -- 250 160 -- -- 250 -- -- -- -- --
CoverFEWFEWFEWBKNBKNSCTSCTBKNSCTFEWSCTSCTFEW
FltCatVFRVFRVFRVFRVFRVFRVFRVFRVFRVFRVFRVFRVFR
WX--------------------------
WDir350360350350340320300300310320330340320
WSpd10 10 9 9 8 6 6 6 8 10 10 11 9
WGst-- -- -- -- -- -- -- -- -- -- -- -- --
Raw hourly METARs
KDFW 150153Z 35010KT 10SM FEW250 09/M02 A3015 RMK AO2 SLP207 T00941022
KDFW 150253Z 36010KT 10SM FEW250 09/M02 A3016 RMK AO2 SLP212 T00891022 51026
KDFW 150353Z 35009KT 10SM FEW250 08/M02 A3021 RMK AO2 SLP227 T00831022
KDFW 150453Z 35009KT 10SM BKN250 07/M02 A3022 RMK AO2 SLP231 T00721017
KDFW 150553Z 34008KT 10SM BKN160 BKN250 07/M02 A3021 RMK AO2 SLP229 T00671017 10122 20067 401670056 50017
KDFW 150653Z 32006KT 10SM FEW160 SCT250 06/M02 A3021 RMK AO2 SLP226 T00561017
KDFW 150753Z 30006KT 10SM SCT250 06/M02 A3021 RMK AO2 SLP229 T00561017
KDFW 150853Z 30006KT 10SM BKN250 05/M03 A3022 RMK AO2 SLP232 T00501028 53002
KDFW 150953Z 31008KT 10SM SCT250 04/M03 A3022 RMK AO2 SLP233 T00441028
KDFW 151053Z 32010KT 10SM FEW250 05/M03 A3024 RMK AO2 SLP237 T00501028
KDFW 151153Z 33010KT 10SM SCT250 04/M02 A3026 RMK AO2 SLP244 T00441022 10067 20022 53012
KDFW 151253Z 34011KT 10SM SCT250 04/M02 A3027 RMK AO2 SLP252 T00391017
KDFW 151353Z 32009KT 10SM FEW250 04/M01 A3029 RMK AO2 SLP256 T00391011